Time;durP1;ratioP1;P1;durP2;ratioP2;P2;SDS_P1;SDS_P2;PMS_P1;PMS_P2;Temp;Humidity;BMP_temperature;BMP_pressure;BME280_temperature;BME280_humidity;BME280_pressure;Samples;Min_cycle;Max_cycle;Signal;HPM_P1;HPM_P2
2021/01/09 00:01:41;;;;;;;22.52;13.95;;;;;;;-1.23;76.41;96540.32;1787649;80;21112;-88
2021/01/09 00:04:08;;;;;;;18.57;9.68;;;;;;;-1.23;76.41;96540.32;1787872;80;21507;-88
2021/01/09 00:06:38;;;;;;;22.73;13.30;;;;;;;-1.18;76.34;96544.09;1787733;80;21160;-88
2021/01/09 00:09:10;;;;;;;22.62;11.68;;;;;;;-1.15;76.30;96548.37;1787769;80;21185;-88
2021/01/09 00:11:37;;;;;;;21.42;11.25;;;;;;;-1.13;76.25;96541.66;1787855;80;21262;-88
2021/01/09 00:14:04;;;;;;;23.15;12.95;;;;;;;-1.12;76.18;96545.39;1787717;80;21159;-88
2021/01/09 00:16:31;;;;;;;15.80;8.28;;;;;;;-1.11;76.09;96546.19;1787689;80;21266;-88
2021/01/09 00:18:59;;;;;;;20.35;12.45;;;;;;;-1.10;75.95;96540.77;1787496;80;21168;-88
2021/01/09 00:21:37;;;;;;;16.10;7.33;;;;;;;-1.07;76.07;96550.77;1787896;80;21124;-88
2021/01/09 00:24:08;;;;;;;18.75;9.70;;;;;;;-1.07;75.92;96548.66;1787344;80;21139;-88
2021/01/09 00:26:37;;;;;;;22.07;11.90;;;;;;;-1.06;76.01;96551.56;1786651;80;21163;-88
2021/01/09 00:29:06;;;;;;;23.70;12.85;;;;;;;-1.06;75.93;96541.16;1787828;80;21278;-88
2021/01/09 00:31:34;;;;;;;27.32;13.80;;;;;;;-1.06;75.99;96548.45;1787389;80;21119;-88
2021/01/09 00:34:01;;;;;;;22.70;12.07;;;;;;;-1.06;76.11;96557.56;1787835;80;21289;-89
2021/01/09 00:36:28;;;;;;;21.57;12.58;;;;;;;-1.06;76.11;96550.26;1787660;80;21483;-88
2021/01/09 00:38:56;;;;;;;21.48;12.60;;;;;;;-1.07;76.09;96548.66;1787668;80;21515;-88
2021/01/09 00:41:28;;;;;;;19.00;10.80;;;;;;;-1.07;76.18;96556.47;1787651;80;21131;-88
2021/01/09 00:43:57;;;;;;;24.90;13.58;;;;;;;-1.08;76.16;96548.37;1787593;80;21182;-89
2021/01/09 00:46:26;;;;;;;20.57;11.97;;;;;;;-1.07;76.13;96553.87;1787821;80;21143;-88
2021/01/09 00:48:53;;;;;;;24.27;12.43;;;;;;;-1.07;76.25;96547.36;1787371;80;21265;-88
2021/01/09 00:51:20;;;;;;;21.15;11.10;;;;;;;-1.10;76.34;96551.18;1756570;82;21163;-88
2021/01/09 00:53:47;;;;;;;24.25;14.47;;;;;;;-1.12;76.30;96556.30;1756539;82;21503;-88
2021/01/09 00:56:15;;;;;;;24.98;13.32;;;;;;;-1.12;76.33;96555.00;1756652;82;21111;-88
2021/01/09 00:58:43;;;;;;;22.60;12.20;;;;;;;-1.11;76.40;96561.80;1756524;82;21116;-88
2021/01/09 01:01:11;;;;;;;12.00;7.87;;;;;;;-1.13;76.43;96548.97;1756601;81;21138;-88
2021/01/09 01:03:39;;;;;;;22.87;12.28;;;;;;;-1.10;76.38;96555.59;1756570;82;21520;-88
2021/01/09 01:06:07;;;;;;;21.80;11.93;;;;;;;-1.09;76.36;96559.28;1756581;81;21495;-88
2021/01/09 01:08:34;;;;;;;13.88;8.25;;;;;;;-1.09;76.42;96557.18;1756626;81;21186;-88
2021/01/09 01:11:01;;;;;;;21.23;12.15;;;;;;;-1.07;76.34;96553.87;1756611;82;21143;-88
2021/01/09 01:13:28;;;;;;;19.82;11.63;;;;;;;-1.07;76.47;96553.87;1756635;81;21518;-88
2021/01/09 01:15:55;;;;;;;20.12;9.75;;;;;;;-1.06;76.55;96559.36;1756582;82;21151;-88
2021/01/09 01:18:23;;;;;;;22.00;12.10;;;;;;;-1.06;76.61;96558.86;1756689;82;21155;-88
2021/01/09 01:20:51;;;;;;;22.07;13.38;;;;;;;-1.08;76.58;96551.77;1781500;80;21535;-88
2021/01/09 01:23:19;;;;;;;25.23;14.30;;;;;;;-1.06;76.57;96560.16;1787623;80;21138;-88
2021/01/09 01:25:46;;;;;;;15.15;9.20;;;;;;;-1.07;76.62;96557.77;1787597;80;21152;-88
2021/01/09 01:28:13;;;;;;;20.90;13.00;;;;;;;-1.09;76.64;96547.57;1787929;80;21185;-88
2021/01/09 01:30:40;;;;;;;23.67;12.93;;;;;;;-1.10;76.71;96554.28;1787675;80;21646;-88
2021/01/09 01:33:06;;;;;;;24.35;14.58;;;;;;;-1.11;76.84;96547.48;1787837;80;21507;-88
2021/01/09 01:35:33;;;;;;;24.32;14.75;;;;;;;-1.12;76.89;96560.20;1787811;80;21638;-88
2021/01/09 01:38:00;;;;;;;24.57;13.62;;;;;;;-1.14;76.97;96551.27;1787788;80;21230;-88
2021/01/09 01:40:27;;;;;;;24.63;12.82;;;;;;;-1.14;77.02;96554.38;1787769;80;21132;-88
2021/01/09 01:42:54;;;;;;;16.65;8.98;;;;;;;-1.15;77.09;96557.48;1787859;80;21135;-88
2021/01/09 01:45:21;;;;;;;23.98;12.95;;;;;;;-1.16;77.23;96551.98;1787677;80;21144;-89
2021/01/09 01:47:48;;;;;;;23.57;12.28;;;;;;;-1.16;77.16;96557.69;1787210;80;21135;-89
2021/01/09 01:50:16;;;;;;;23.83;13.83;;;;;;;-1.15;77.22;96560.08;1786724;80;21140;-88
2021/01/09 01:52:45;;;;;;;21.80;9.75;;;;;;;-1.14;77.24;96562.19;1787483;80;21096;-88
2021/01/09 01:55:13;;;;;;;21.75;12.30;;;;;;;-1.15;77.40;96557.98;1787201;80;21135;-89
2021/01/09 01:57:40;;;;;;;22.42;13.25;;;;;;;-1.15;77.39;96567.09;1787535;80;21155;-88
2021/01/09 02:00:08;;;;;;;23.02;13.10;;;;;;;-1.16;77.43;96566.29;1787164;80;21143;-89
2021/01/09 02:02:37;;;;;;;19.75;10.53;;;;;;;-1.16;77.51;96567.59;1787228;80;21479;-89
2021/01/09 02:05:08;;;;;;;19.90;11.57;;;;;;;-1.17;77.54;96562.59;1787153;80;21536;-88
2021/01/09 02:07:39;;;;;;;20.57;11.43;;;;;;;-1.16;77.56;96566.80;1787336;80;21475;-88
2021/01/09 02:10:08;;;;;;;23.50;13.75;;;;;;;-1.16;77.55;96560.30;1786891;80;21238;-89
2021/01/09 02:12:44;;;;;;;19.60;10.55;;;;;;;-1.16;77.54;96566.80;1787520;80;21537;-89
2021/01/09 02:15:14;;;;;;;19.57;11.85;;;;;;;-1.16;77.57;96562.39;1787189;80;21124;-88
2021/01/09 02:17:44;;;;;;;19.75;9.73;;;;;;;-1.15;77.55;96567.09;1787421;80;21516;-88
2021/01/09 02:20:13;;;;;;;22.00;11.57;;;;;;;-1.13;77.49;96561.17;1787246;80;21112;-88
2021/01/09 02:22:44;;;;;;;22.13;11.08;;;;;;;-1.12;77.51;96567.50;1787186;80;21127;-88
2021/01/09 02:25:12;;;;;;;22.40;12.63;;;;;;;-1.11;77.48;96574.80;1787149;80;21116;-88
2021/01/09 02:27:39;;;;;;;20.90;11.48;;;;;;;-1.09;77.53;96567.59;1787212;80;21131;-88
2021/01/09 02:30:12;;;;;;;16.62;9.10;;;;;;;-1.07;77.48;96566.88;1787135;80;21512;-88
2021/01/09 02:32:50;;;;;;;21.62;12.20;;;;;;;-1.05;77.47;96564.36;1787168;80;21100;-88
2021/01/09 02:35:21;;;;;;;22.13;12.35;;;;;;;-1.05;77.50;96568.27;1787414;80;21143;-88
2021/01/09 02:37:49;;;;;;;21.00;11.78;;;;;;;-1.03;77.54;96570.15;1787220;80;21122;-89
2021/01/09 02:40:18;;;;;;;26.45;15.58;;;;;;;-1.02;77.57;96573.55;1787278;80;21156;-88
2021/01/09 02:42:46;;;;;;;26.97;15.30;;;;;;;-1.02;77.58;96570.95;1787579;80;21147;-88
2021/01/09 02:45:16;;;;;;;24.20;13.10;;;;;;;-1.00;77.67;96576.74;1787101;80;21512;-88
2021/01/09 02:47:43;;;;;;;32.80;16.48;;;;;;;-1.00;77.74;96578.04;1787794;80;21112;-88
2021/01/09 02:50:11;;;;;;;32.60;17.25;;;;;;;-1.02;77.80;96568.34;1763021;80;21171;-89
2021/01/09 02:52:41;;;;;;;24.87;12.60;;;;;;;-1.04;77.82;96567.76;1787687;80;21269;-88
2021/01/09 02:55:09;;;;;;;28.17;16.95;;;;;;;-1.08;77.91;96566.58;1787180;80;21135;-88
2021/01/09 02:57:36;;;;;;;26.93;15.68;;;;;;;-1.14;77.92;96575.98;1787744;80;21146;-88
2021/01/09 03:00:05;;;;;;;31.95;16.93;;;;;;;-1.34;77.91;96550.55;1771892;80;21277;-88
2021/01/09 03:02:32;;;;;;;20.32;12.37;;;;;;;-1.34;77.91;96550.55;1759075;81;21269;-88
2021/01/09 03:04:59;;;;;;;27.95;17.05;;;;;;;-1.30;78.17;96562.93;1759236;81;21111;-89
2021/01/09 03:07:26;;;;;;;31.30;17.00;;;;;;;-1.37;78.22;96567.36;1759292;81;21507;-88
2021/01/09 03:09:53;;;;;;;29.40;16.87;;;;;;;-1.44;78.39;96560.06;1759090;81;21515;-88
2021/01/09 03:12:20;;;;;;;28.85;16.12;;;;;;;-1.52;78.54;96556.40;1788015;80;21130;-88
2021/01/09 03:14:47;;;;;;;29.23;15.68;;;;;;;-1.54;78.71;96564.91;1756926;82;21172;-88
2021/01/09 03:17:14;;;;;;;25.27;15.43;;;;;;;-1.62;78.98;96556.01;1756906;81;21518;-88
2021/01/09 03:19:41;;;;;;;19.32;10.58;;;;;;;-1.70;79.46;96560.11;1782088;79;21563;-88
2021/01/09 03:22:08;;;;;;;22.35;11.30;;;;;;;-1.80;79.91;96553.54;1769069;81;21597;-88
2021/01/09 03:24:35;;;;;;;16.52;8.33;;;;;;;-1.86;80.11;96556.92;1769157;81;21649;-88
2021/01/09 03:27:02;;;;;;;20.52;11.25;;;;;;;-1.90;80.44;96562.73;1750107;82;21139;-89
2021/01/09 03:29:29;;;;;;;15.35;8.38;;;;;;;-1.93;80.45;96567.03;1749971;82;21169;-88
2021/01/09 03:31:56;;;;;;;20.27;10.50;;;;;;;-1.94;80.55;96556.34;1738678;82;21548;-88
2021/01/09 03:34:23;;;;;;;18.95;10.45;;;;;;;-1.95;80.36;96568.53;1750022;82;21161;-88
2021/01/09 03:36:50;;;;;;;15.75;8.88;;;;;;;-1.94;80.42;96568.03;1750063;82;21171;-88
2021/01/09 03:39:17;;;;;;;16.30;10.10;;;;;;;-1.98;80.34;96571.52;1738730;82;21308;-88
2021/01/09 03:41:43;;;;;;;15.20;7.75;;;;;;;-1.98;80.36;96571.52;1750096;82;21149;-88
2021/01/09 03:44:10;;;;;;;16.27;8.35;;;;;;;-2.00;80.40;96572.72;1738698;82;21272;-88
2021/01/09 03:46:37;;;;;;;22.62;12.80;;;;;;;-2.02;80.41;96576.02;1737026;82;21177;-88
2021/01/09 03:49:04;;;;;;;20.32;10.65;;;;;;;-2.01;80.17;96579.70;1752845;80;21186;-88
2021/01/09 03:51:31;;;;;;;18.73;11.10;;;;;;;-2.01;80.07;96579.70;1786320;80;21278;-88
2021/01/09 03:53:58;;;;;;;14.95;9.75;;;;;;;-1.98;79.98;96587.09;1786381;80;21108;-88
2021/01/09 03:56:25;;;;;;;16.67;9.35;;;;;;;-1.95;79.84;96591.12;1786472;80;21167;-88
2021/01/09 03:58:52;;;;;;;16.10;8.55;;;;;;;-1.97;79.80;96590.02;1786255;80;21116;-88
2021/01/09 04:01:19;;;;;;;16.15;8.93;;;;;;;-1.96;79.72;96592.12;1786220;80;21515;-88
2021/01/09 04:03:46;;;;;;;18.50;9.50;;;;;;;-1.95;79.70;96590.62;1786267;80;21164;-88
2021/01/09 04:06:13;;;;;;;17.85;10.18;;;;;;;-1.96;79.64;96590.32;1786331;80;21514;-88
2021/01/09 04:08:40;;;;;;;18.15;9.43;;;;;;;-1.92;79.60;96598.00;1786665;80;21145;-88
2021/01/09 04:11:07;;;;;;;18.77;10.50;;;;;;;-1.88;79.53;96594.50;1786453;80;21131;-88
2021/01/09 04:13:34;;;;;;;18.67;10.68;;;;;;;-1.88;79.44;96594.00;1786273;80;21097;-88
2021/01/09 04:16:05;;;;;;;17.27;9.73;;;;;;;-1.88;79.40;96593.20;1795396;80;21130;-88
2021/01/09 04:18:32;;;;;;;17.45;9.53;;;;;;;-1.88;79.34;96595.80;1795307;80;21326;-89
2021/01/09 04:20:59;;;;;;;17.32;10.03;;;;;;;-1.88;79.29;96597.10;1794583;80;21519;-88
2021/01/09 04:23:26;;;;;;;16.32;9.53;;;;;;;-1.88;79.25;96594.50;1795154;80;21289;-88
2021/01/09 04:25:53;;;;;;;19.07;9.35;;;;;;;-1.88;79.21;96595.30;1795097;80;21286;-88
2021/01/09 04:28:20;;;;;;;20.17;9.63;;;;;;;-1.86;79.12;96600.30;1795233;80;21184;-88
2021/01/09 04:30:47;;;;;;;15.58;9.20;;;;;;;-1.87;79.04;96600.00;1795207;80;21289;-88
2021/01/09 04:33:14;;;;;;;15.90;9.45;;;;;;;-1.91;78.94;96601.41;1795196;80;21305;-88
2021/01/09 04:35:40;;;;;;;12.63;7.37;;;;;;;-1.93;78.91;96600.80;1795180;80;21298;-88
2021/01/09 04:38:07;;;;;;;19.17;9.93;;;;;;;-1.96;78.87;96599.41;1795157;80;21276;-88
2021/01/09 04:40:36;;;;;;;16.35;9.90;;;;;;;-1.99;78.80;96601.09;1795233;80;21278;-88
2021/01/09 04:43:03;;;;;;;18.98;9.93;;;;;;;-2.04;78.87;96606.09;1795081;80;21494;-88
2021/01/09 04:45:30;;;;;;;17.70;10.13;;;;;;;-2.08;79.03;96606.69;1795140;80;21653;-88
2021/01/09 04:47:59;;;;;;;19.05;11.00;;;;;;;-2.11;78.98;96607.89;1795176;80;21629;-88
2021/01/09 04:50:28;;;;;;;19.52;10.53;;;;;;;-2.14;79.00;96612.16;1768160;80;21135;-88
2021/01/09 04:52:56;;;;;;;15.85;9.13;;;;;;;-2.13;79.03;96610.66;1795101;80;21289;-88
2021/01/09 04:55:27;;;;;;;17.40;9.23;;;;;;;-2.12;79.01;96610.16;1795162;80;21277;-88
2021/01/09 04:57:54;;;;;;;14.68;8.18;;;;;;;-2.14;78.97;96606.97;1768835;80;21143;-88
2021/01/09 05:00:21;;;;;;;15.85;9.03;;;;;;;-2.15;79.06;96610.06;1795166;80;21646;-88
2021/01/09 05:02:49;;;;;;;15.43;8.88;;;;;;;-2.31;79.14;96613.54;1795162;80;21282;-88
2021/01/09 05:05:16;;;;;;;17.15;10.50;;;;;;;-2.42;79.35;96618.30;1795450;80;21151;-88
2021/01/09 05:07:44;;;;;;;16.30;9.68;;;;;;;-2.41;79.45;96623.79;1795378;80;21149;-88
2021/01/09 05:10:12;;;;;;;15.45;9.28;;;;;;;-2.37;79.57;96619.03;1795581;80;21168;-88
2021/01/09 05:12:41;;;;;;;16.50;8.65;;;;;;;-2.36;79.63;96623.72;1795273;80;21499;-88
2021/01/09 05:15:09;;;;;;;15.40;8.33;;;;;;;-2.31;79.59;96618.73;1795433;80;21139;-88
2021/01/09 05:17:38;;;;;;;17.50;9.23;;;;;;;-2.28;79.52;96624.33;1795371;80;21143;-88
2021/01/09 05:20:08;;;;;;;13.75;7.90;;;;;;;-2.26;79.52;96634.01;1794948;80;21112;-88
2021/01/09 05:22:37;;;;;;;15.45;8.05;;;;;;;-2.21;79.48;96636.03;1794935;80;21285;-88
2021/01/09 05:25:06;;;;;;;19.37;9.23;;;;;;;-2.14;79.46;96638.13;1795527;80;21285;-88
2021/01/09 05:27:37;;;;;;;11.78;6.03;;;;;;;-2.09;79.37;96633.16;1769098;80;21534;-88
2021/01/09 05:30:05;;;;;;;13.88;8.03;;;;;;;-2.03;79.34;96632.86;1795511;80;21142;-88
2021/01/09 05:32:33;;;;;;;15.20;8.50;;;;;;;-1.99;79.25;96640.55;1795185;80;21273;-88
2021/01/09 05:34:59;;;;;;;16.52;9.18;;;;;;;-1.99;79.10;96641.34;1768920;80;21158;-88
2021/01/09 05:37:27;;;;;;;14.38;8.05;;;;;;;-1.97;79.04;96644.58;1795259;80;21207;-88
2021/01/09 05:39:57;;;;;;;10.80;6.97;;;;;;;-2.01;79.02;96645.14;1795435;80;21139;-88
2021/01/09 05:42:28;;;;;;;15.60;9.53;;;;;;;-2.04;79.11;96652.84;1795405;80;21289;-88
2021/01/09 05:44:57;;;;;;;13.80;8.75;;;;;;;-2.08;79.15;96656.84;1794881;80;21156;-88
2021/01/09 05:47:28;;;;;;;16.70;9.40;;;;;;;-2.12;79.23;96660.80;1795414;80;21159;-89
2021/01/09 05:50:00;;;;;;;16.05;8.68;;;;;;;-2.15;79.31;96661.20;1794915;80;21723;-88
2021/01/09 05:52:29;;;;;;;12.47;6.53;;;;;;;-2.15;79.41;96658.11;1795240;80;21270;-88
2021/01/09 05:54:58;;;;;;;13.55;6.97;;;;;;;-2.14;79.36;96657.61;1795230;80;21146;-88
2021/01/09 05:57:35;;;;;;;12.45;6.67;;;;;;;-2.14;79.27;96656.31;1795342;80;21503;-88
2021/01/09 06:00:10;;;;;;;17.62;8.80;;;;;;;-2.17;79.26;96667.09;1795358;80;21483;-88
2021/01/09 06:02:57;;;;;;;15.70;9.20;;;;;;;-2.27;79.31;96666.66;1795218;80;21135;-88
2021/01/09 06:05:29;;;;;;;15.55;9.28;;;;;;;-2.34;79.29;96682.23;1795159;80;21689;-88
2021/01/09 06:08:00;;;;;;;15.60;7.60;;;;;;;-2.36;79.37;96680.84;1794499;80;21178;-88
2021/01/09 06:10:28;;;;;;;;;;;;;;;-2.36;79.47;96677.73;1797723;80;21579;-88
2021/01/09 06:13:01;;;;;;;15.93;7.67;;;;;;;-2.38;79.55;96681.53;1795215;80;20119;-88
2021/01/09 06:15:32;;;;;;;16.17;9.20;;;;;;;-2.39;79.58;96683.33;1795295;80;21246;-88
2021/01/09 06:18:02;;;;;;;21.62;9.28;;;;;;;-2.44;79.67;96684.39;1795179;80;21274;-87
2021/01/09 06:20:30;;;;;;;16.60;8.50;;;;;;;-2.44;79.81;96684.39;1794928;80;21638;-88
2021/01/09 06:22:59;;;;;;;12.58;7.20;;;;;;;-2.42;80.04;96690.98;1795201;80;21217;-88
2021/01/09 06:25:30;;;;;;;10.30;5.25;;;;;;;-2.36;80.26;96692.02;1795377;80;21136;-88
2021/01/09 06:28:03;;;;;;;9.20;5.80;;;;;;;-2.22;80.29;96687.67;1768928;80;21148;-88
2021/01/09 06:30:34;;;;;;;12.68;6.55;;;;;;;-2.10;80.13;96690.00;1795264;80;21266;-88
2021/01/09 06:33:04;;;;;;;11.65;6.62;;;;;;;-2.03;80.02;96696.00;1795308;80;21266;-87
2021/01/09 06:35:33;;;;;;;7.80;4.08;;;;;;;-1.98;79.86;96694.90;1795584;80;21138;-87
2021/01/09 06:38:02;;;;;;;12.17;7.07;;;;;;;-1.92;79.63;96698.52;1795377;80;21159;-88
2021/01/09 06:40:30;;;;;;;8.03;4.30;;;;;;;-1.88;79.50;96701.83;1795209;80;21265;-87
2021/01/09 06:42:57;;;;;;;10.80;5.47;;;;;;;-1.81;79.24;96709.64;1795107;80;21289;-88
2021/01/09 06:45:25;;;;;;;7.83;4.87;;;;;;;-1.75;79.02;96708.04;1768858;80;21154;-87
2021/01/09 06:48:01;;;;;;;11.25;6.55;;;;;;;-1.73;78.77;96702.94;1795540;80;21167;-88
2021/01/09 06:50:35;;;;;;;12.58;6.20;;;;;;;-1.70;78.64;96706.94;1794672;80;21158;-88
2021/01/09 06:53:04;;;;;;;6.40;3.95;;;;;;;-1.67;78.73;96706.56;1795795;80;21482;-88
2021/01/09 06:55:42;;;;;;;7.00;4.03;;;;;;;-1.66;78.53;96717.27;1795854;80;21510;-88
2021/01/09 06:58:15;;;;;;;13.08;6.25;;;;;;;-1.63;78.47;96711.66;1795780;80;21526;-88
2021/01/09 07:00:42;;;;;;;11.25;6.33;;;;;;;-1.63;78.55;96711.16;1795787;80;21108;-88
2021/01/09 07:03:18;;;;;;;9.00;6.37;;;;;;;-1.61;78.54;96716.95;1795675;80;21126;-88
2021/01/09 07:05:49;;;;;;;9.78;4.78;;;;;;;-1.58;78.49;96726.95;1795832;80;21511;-88
2021/01/09 07:08:28;;;;;;;9.68;5.05;;;;;;;-1.58;78.35;96724.84;1795892;80;21155;-88
2021/01/09 07:10:59;;;;;;;8.03;5.15;;;;;;;-1.57;78.47;96734.25;1770694;80;21518;-88
2021/01/09 07:13:28;;;;;;;11.60;5.55;;;;;;;-1.55;78.40;96737.44;1795727;80;21140;-88
2021/01/09 07:16:14;;;;;;;9.35;4.87;;;;;;;-1.52;78.30;96735.77;1795817;80;21135;-88
2021/01/09 07:18:55;;;;;;;14.95;7.42;;;;;;;-1.52;78.33;96739.67;1795658;80;21168;-88
2021/01/09 07:21:22;;;;;;;11.05;4.08;;;;;;;-1.51;78.46;96739.47;1771613;80;21108;-88
2021/01/09 07:23:56;;;;;;;10.40;6.15;;;;;;;-1.49;78.61;96740.56;1795696;80;21416;-87
2021/01/09 07:26:25;;;;;;;8.60;5.33;;;;;;;-1.46;78.49;96742.77;1796012;80;21138;-87
2021/01/09 07:28:53;;;;;;;12.40;6.67;;;;;;;-1.45;78.62;96743.06;1795896;80;21142;-86
2021/01/09 07:31:25;;;;;;;13.15;7.25;;;;;;;-1.45;78.57;96753.46;1795836;80;21162;-87
2021/01/09 07:33:58;;;;;;;14.23;7.53;;;;;;;-1.43;78.61;96751.46;1795959;80;21139;-88
2021/01/09 07:36:28;;;;;;;13.48;7.92;;;;;;;-1.42;78.63;96754.36;1795904;80;21127;-88
2021/01/09 07:39:05;;;;;;;14.40;7.55;;;;;;;-1.36;78.70;96759.28;1795847;80;21142;-87
2021/01/09 07:41:38;;;;;;;13.95;8.48;;;;;;;-1.26;78.63;96759.20;1795875;80;21127;-87
2021/01/09 07:44:16;;;;;;;12.15;7.80;;;;;;;-1.16;78.53;96757.48;1795679;80;21151;-87
2021/01/09 07:46:58;;;;;;;12.55;6.92;;;;;;;-1.11;78.37;96759.00;1795905;80;21131;-88
2021/01/09 07:49:30;;;;;;;15.10;7.92;;;;;;;-1.07;78.02;96768.49;1795159;80;21172;-88
2021/01/09 07:52:06;;;;;;;11.20;6.97;;;;;;;-1.02;78.15;96775.19;1795623;80;21459;-88
2021/01/09 07:54:44;;;;;;;13.83;8.30;;;;;;;-0.96;77.93;96775.70;1795708;80;21131;-88
2021/01/09 07:57:25;;;;;;;11.28;7.35;;;;;;;-0.88;77.88;96779.38;1795716;80;21115;-88
2021/01/09 07:59:59;;;;;;;;;;;;;;;-0.80;77.63;96773.18;1798528;80;21135;-89
2021/01/09 08:02:29;;;;;;;14.43;8.28;;;;;;;-0.76;77.50;96783.48;1795901;80;20325;-88
2021/01/09 08:05:20;;;;;;;11.38;5.78;;;;;;;-0.79;76.68;96763.87;1795625;80;21183;-89
2021/01/09 08:10:36;;;;;;;13.50;8.73;;;;;;;-0.70;76.77;96782.19;1768856;80;28713;-87
2021/01/09 08:13:07;;;;;;;14.25;8.88;;;;;;;-0.73;76.63;96785.16;1771578;81;21363;-87
2021/01/09 08:15:37;;;;;;;13.10;8.13;;;;;;;-0.75;76.76;96786.38;1771562;81;21130;-88
2021/01/09 08:18:08;;;;;;;13.85;8.80;;;;;;;-0.74;76.97;96782.27;1771516;81;21119;-88
2021/01/09 08:20:35;;;;;;;9.50;5.70;;;;;;;-0.69;77.44;96790.29;1748649;81;21173;-88
2021/01/09 08:23:05;;;;;;;14.60;8.35;;;;;;;-0.69;77.44;96790.29;1739393;82;21129;-88
2021/01/09 08:25:39;;;;;;;9.55;4.80;;;;;;;-0.69;77.29;96787.69;1739463;82;21133;-88
2021/01/09 08:28:07;;;;;;;9.85;5.85;;;;;;;-0.72;77.46;96780.76;1739299;82;21516;-88
2021/01/09 08:30:40;;;;;;;10.13;4.75;;;;;;;-0.72;77.46;96780.76;1739308;82;21489;-88
2021/01/09 08:33:15;;;;;;;12.13;7.17;;;;;;;-0.60;77.88;96792.95;1739428;82;21148;-88
2021/01/09 08:35:52;;;;;;;9.78;5.05;;;;;;;-0.37;77.91;96798.23;1739491;82;21525;-88
2021/01/09 08:38:28;;;;;;;10.80;6.00;;;;;;;-0.35;77.23;96797.53;1739346;82;21175;-88
2021/01/09 08:40:58;;;;;;;6.65;4.78;;;;;;;-0.50;77.05;96796.45;1739292;82;21154;-88
2021/01/09 08:43:26;;;;;;;6.83;4.00;;;;;;;-0.61;77.13;96791.36;1739614;82;21145;-89
2021/01/09 08:45:56;;;;;;;9.28;6.28;;;;;;;-0.61;77.19;96795.27;1739198;82;21148;-88
2021/01/09 08:48:30;;;;;;;10.68;5.65;;;;;;;-0.44;77.32;96794.83;1739586;82;21198;-88
2021/01/09 08:51:12;;;;;;;11.08;6.78;;;;;;;-0.22;76.79;96793.58;1766368;81;21270;-88
2021/01/09 08:53:47;;;;;;;13.80;8.15;;;;;;;-0.11;76.50;96803.88;1770521;81;21270;-88
2021/01/09 08:56:15;;;;;;;16.77;6.67;;;;;;;-0.03;76.40;96800.52;1770482;81;21144;-89
2021/01/09 08:58:43;;;;;;;12.98;7.10;;;;;;;0.10;75.98;96805.39;1770536;81;21314;-89
2021/01/09 09:01:14;;;;;;;14.25;7.65;;;;;;;0.25;75.87;96806.72;1770432;81;21612;-89
2021/01/09 09:03:45;;;;;;;9.93;6.92;;;;;;;0.36;75.24;96806.58;1770716;81;21274;-89
2021/01/09 09:06:19;;;;;;;14.20;7.70;;;;;;;0.41;74.97;96798.92;1770087;81;21286;-89
2021/01/09 09:08:48;;;;;;;15.48;7.92;;;;;;;0.47;75.11;96803.82;1738349;81;21147;-89
2021/01/09 09:11:16;;;;;;;14.58;7.55;;;;;;;0.54;74.65;96799.34;1738375;81;21100;-89
2021/01/09 09:13:44;;;;;;;11.03;7.20;;;;;;;0.64;74.72;96794.98;1770475;81;21171;-89
2021/01/09 09:16:21;;;;;;;10.90;6.33;;;;;;;0.50;73.99;96801.58;1770423;81;21298;-89
2021/01/09 09:18:49;;;;;;;9.50;5.12;;;;;;;0.47;74.27;96794.19;1770426;81;21299;-90
2021/01/09 09:21:20;;;;;;;15.85;9.60;;;;;;;0.51;73.99;96803.69;1769544;81;21135;-89
2021/01/09 09:23:56;;;;;;;17.75;9.03;;;;;;;0.45;73.60;96796.71;1770052;81;21165;-90
2021/01/09 09:26:32;;;;;;;14.60;8.93;;;;;;;0.51;73.93;96799.77;1770056;81;21139;-89
2021/01/09 09:29:00;;;;;;;11.35;6.53;;;;;;;0.64;73.99;96797.59;1769962;81;21483;-89
2021/01/09 09:31:35;;;;;;;19.32;10.95;;;;;;;0.62;73.28;96795.20;1769794;81;21126;-89
2021/01/09 09:34:13;;;;;;;17.62;11.03;;;;;;;0.65;73.74;96798.69;1766544;81;21155;-88
2021/01/09 09:36:54;;;;;;;37.65;23.45;;;;;;;0.64;73.71;96793.68;1769881;81;21132;-89
2021/01/09 09:39:25;;;;;;;30.35;16.57;;;;;;;0.70;73.78;96796.73;1770025;81;21163;-89
2021/01/09 09:42:00;;;;;;;18.98;11.88;;;;;;;0.80;73.45;96791.36;1769975;81;21167;-89
2021/01/09 09:44:46;;;;;;;19.60;11.18;;;;;;;1.15;73.75;96798.23;1770217;81;21265;-89
2021/01/09 09:47:28;;;;;;;19.48;11.95;;;;;;;1.39;72.67;96795.80;1769873;81;21115;-89
2021/01/09 09:50:00;;;;;;;19.05;12.23;;;;;;;1.53;73.17;96789.94;1769628;81;21154;-89
2021/01/09 09:52:27;;;;;;;22.05;13.60;;;;;;;1.87;72.68;96789.39;1769862;81;21121;-89
2021/01/09 09:55:02;;;;;;;26.35;16.48;;;;;;;2.09;72.61;96788.41;1769847;81;21503;-89
2021/01/09 09:57:29;;;;;;;23.73;13.75;;;;;;;2.17;72.19;96787.33;1770104;81;21135;-90
2021/01/09 10:00:12;;;;;;;23.73;15.03;;;;;;;2.35;71.96;96785.98;1770044;81;21168;-90
2021/01/09 10:02:55;;;;;;;17.67;12.15;;;;;;;2.55;71.92;96791.77;1770188;81;21139;-89
2021/01/09 10:05:25;;;;;;;21.20;14.20;;;;;;;2.76;71.50;96789.14;1769600;81;21116;-90
2021/01/09 10:08:15;;;;;;;21.40;13.78;;;;;;;2.82;70.57;96786.95;1769882;81;21175;-90
2021/01/09 10:10:43;;;;;;;23.65;13.20;;;;;;;2.80;70.03;96782.42;1774590;81;21565;-89
2021/01/09 10:13:11;;;;;;;27.35;14.05;;;;;;;2.99;70.80;96775.31;1775660;81;21150;-89
2021/01/09 10:15:38;;;;;;;16.20;10.05;;;;;;;3.08;69.31;96777.06;1775600;81;21143;-89
2021/01/09 10:18:05;;;;;;;18.70;10.03;;;;;;;2.80;68.48;96771.95;1775817;81;21139;-90
2021/01/09 10:20:33;;;;;;;14.38;8.13;;;;;;;2.73;66.74;96776.50;1754588;81;21129;-90
2021/01/09 10:23:00;;;;;;;22.35;13.80;;;;;;;2.48;66.63;96766.19;1744658;82;21283;-90
2021/01/09 10:25:27;;;;;;;13.10;7.50;;;;;;;2.34;68.20;96769.48;1744432;82;21671;-90
2021/01/09 10:27:54;;;;;;;17.75;11.05;;;;;;;2.17;66.82;96771.64;1744428;82;21650;-90
2021/01/09 10:30:21;;;;;;;14.65;9.28;;;;;;;2.14;68.32;96768.96;1744474;82;21178;-89
2021/01/09 10:32:49;;;;;;;17.85;10.25;;;;;;;2.26;68.05;96769.81;1744356;82;21528;-90
2021/01/09 10:35:16;;;;;;;20.02;12.65;;;;;;;2.44;68.60;96761.63;1744617;82;21156;-91
2021/01/09 10:37:43;;;;;;;17.77;10.13;;;;;;;2.59;68.72;96773.79;1744482;82;21631;-89
2021/01/09 10:40:12;;;;;;;13.28;7.78;;;;;;;2.48;67.27;96768.00;1744487;82;21302;-89
2021/01/09 10:42:40;;;;;;;14.03;8.68;;;;;;;2.20;65.67;96758.91;1744470;82;21287;-89
2021/01/09 10:45:08;;;;;;;15.72;9.78;;;;;;;1.83;65.98;96769.11;1744423;82;21688;-90
2021/01/09 10:47:35;;;;;;;16.52;8.50;;;;;;;1.65;66.83;96771.23;1744677;82;21634;-90
2021/01/09 10:50:03;;;;;;;15.20;8.63;;;;;;;1.50;67.32;96771.58;1759506;81;21511;-89
2021/01/09 10:52:30;;;;;;;12.90;8.10;;;;;;;1.37;67.45;96770.41;1775569;81;21146;-91
2021/01/09 10:54:57;;;;;;;16.93;10.08;;;;;;;1.29;68.09;96778.53;1775558;81;21178;-90
2021/01/09 10:57:24;;;;;;;15.32;8.60;;;;;;;1.28;68.66;96776.43;1775527;81;21150;-90
2021/01/09 10:59:51;;;;;;;12.58;6.97;;;;;;;1.37;68.72;96780.34;1775563;81;21143;-89
2021/01/09 11:02:18;;;;;;;16.20;8.33;;;;;;;1.38;68.45;96770.69;1775483;81;21138;-90
2021/01/09 11:04:46;;;;;;;13.35;8.18;;;;;;;1.40;68.68;96770.77;1775561;81;21143;-90
2021/01/09 11:07:13;;;;;;;14.87;9.15;;;;;;;1.54;68.76;96769.33;1775488;81;21150;-90
2021/01/09 11:09:41;;;;;;;10.63;5.97;;;;;;;2.00;69.61;96768.83;1772596;81;21147;-90
2021/01/09 11:12:09;;;;;;;8.13;4.65;;;;;;;2.43;68.10;96767.38;1764467;81;21120;-89
2021/01/09 11:14:38;;;;;;;13.15;5.92;;;;;;;2.35;64.95;96762.44;1764561;81;21354;-89
2021/01/09 11:17:05;;;;;;;12.90;7.12;;;;;;;2.11;65.25;96761.53;1764422;81;21459;-90
2021/01/09 11:19:32;;;;;;;13.18;6.53;;;;;;;1.94;65.54;96766.57;1763875;81;21127;-90
2021/01/09 11:22:02;;;;;;;13.83;6.90;;;;;;;1.88;66.53;96773.20;1764484;81;21173;-89
2021/01/09 11:24:32;;;;;;;10.23;5.30;;;;;;;1.79;66.63;96775.30;1764563;81;21510;-90
2021/01/09 11:27:05;;;;;;;8.68;5.40;;;;;;;1.70;65.87;96771.39;1764398;81;21179;-90
2021/01/09 11:29:34;;;;;;;15.98;6.60;;;;;;;1.39;65.68;96777.00;1764402;81;21174;-90
2021/01/09 11:32:06;;;;;;;11.73;7.12;;;;;;;1.15;66.12;96771.32;1764427;81;21143;-90
2021/01/09 11:34:35;;;;;;;7.55;5.20;;;;;;;1.02;66.85;96768.31;1764407;81;21134;-90
2021/01/09 11:37:02;;;;;;;9.73;5.37;;;;;;;0.94;66.49;96762.05;1764520;81;21265;-90
2021/01/09 11:39:29;;;;;;;10.43;5.85;;;;;;;0.85;66.80;96768.05;1764389;81;21193;-90